WetterOnline ( https://www.wetteronline.at )

Wetter aktuell Odenwald (in 400m)

Aktuelles Wetter: Michelstadt-Vielbrunn (455m)

6-stündlich | Neueste Meldungen
Ortszeit Temperatur Wetter
Sa, 13.07. 20:00 18.6° C wolkig
Sa, 13.07. 14:00 17.4° C bewölkt
Sa, 13.07. 8:00 13.8° C leicht bewölkt
Sa, 13.07. 2:00 13.5° C bedeckt
Fr, 12.07. 20:00 22.0° C bedeckt
Fr, 12.07. 14:00 24.6° C wolkig
Fr, 12.07. 8:00 17.7° C wolkig
Fr, 12.07. 2:00 18.6° C wolkig
Ortszeit Temperatur Wetter
Sa, 13.07. 21:30 16.9° C wolkig
Sa, 13.07. 21:20 16.9° C wolkig
Sa, 13.07. 21:10 17.2° C bedeckt
Sa, 13.07. 21:00 17.7° C wolkig
Sa, 13.07. 20:50 17.7° C wolkig
Sa, 13.07. 20:40 17.9° C bewölkt
Sa, 13.07. 20:30 18.3° C wolkig
Sa, 13.07. 20:00 18.6° C wolkig
Sa, 13.07. 19:30 18.7° C bewölkt
Sa, 13.07. 19:00 19.2° C wolkig
Sa, 13.07. 18:30 19.9° C leicht bewölkt
Ortszeit Relative Feuchte Sichtweite
Sa, 13.07. 20:00 58% >70 km
Sa, 13.07. 14:00 71% 50 km
Sa, 13.07. 8:00 76% >70 km
Sa, 13.07. 2:00 86% 60 km
Fr, 12.07. 20:00 60% 55 km
Fr, 12.07. 14:00 64% 55 km
Fr, 12.07. 8:00 96% 35 km
Fr, 12.07. 2:00 89% 40 km
Ortszeit Relative Feuchte Sichtweite
Sa, 13.07. 21:30 66% 45 km
Sa, 13.07. 21:20 66% -
Sa, 13.07. 21:10 65% -
Sa, 13.07. 21:00 63% 65 km
Sa, 13.07. 20:50 63% -
Sa, 13.07. 20:40 62% -
Sa, 13.07. 20:30 58% 60 km
Sa, 13.07. 20:00 58% >70 km
Sa, 13.07. 19:30 57% 60 km
Sa, 13.07. 19:00 53% 55 km
Sa, 13.07. 18:30 54% >70 km
Ortszeit Niederschlagsmenge Niederschlagsart
Sa, 13.07. 20:00 0.3 l/m2 in 12 Std. -
Sa, 13.07. 14:00 0.3 l/m2 in 6 Std. Regen
Sa, 13.07. 8:00 0.1 l/m2 in 12 Std. Sprühregen
Sa, 13.07. 2:00 0.0 l/m2 in 6 Std. -
Fr, 12.07. 20:00 0.1 l/m2 in 12 Std. Regen
Fr, 12.07. 14:00 0.0 l/m2 in 6 Std. -
Fr, 12.07. 8:00 2 l/m2 in 12 Std. Regen
Fr, 12.07. 2:00 0.0 l/m2 in 6 Std. -
Ortszeit Niederschlagsmenge Niederschlagsart
Sa, 13.07. 21:30 0.0 l/m2 in 30 Min -
Sa, 13.07. 21:20 keine Meldung -
Sa, 13.07. 21:10 keine Meldung -
Sa, 13.07. 21:00 0.0 l/m2 in 1 Std. -
Sa, 13.07. 20:50 keine Meldung -
Sa, 13.07. 20:40 keine Meldung -
Sa, 13.07. 20:30 0.0 l/m2 in 30 Min -
Sa, 13.07. 20:00 0.0 l/m2 in 1 Std. -
Sa, 13.07. 19:30 0.0 l/m2 in 30 Min -
Sa, 13.07. 19:00 0.0 l/m2 in 1 Std. -
Sa, 13.07. 18:30 0.0 l/m2 in 30 Min -
Ortszeit Stärke Spitze Richtung
km/h Bft. km/h Grad Sektor
Sa, 13.07. 20:00 7 2 29 240° SW
Sa, 13.07. 14:00 9 2 24 250° W
Sa, 13.07. 8:00 7 2 22 260° W
Sa, 13.07. 2:00 11 2 30 300° NW
Fr, 12.07. 20:00 9 2 37 280° W
Fr, 12.07. 14:00 17 3 39 240° SW
Fr, 12.07. 8:00 14 3 36 160° S
Fr, 12.07. 2:00 7 2 11 120° SO
Ortszeit Stärke Spitze Richtung
km/h Bft. km/h Grad Sektor
Sa, 13.07. 21:30 4 1 7 220° SW
Sa, 13.07. 21:20 4 1 - 220° SW
Sa, 13.07. 21:10 4 1 - 220° SW
Sa, 13.07. 21:00 4 1 14 230° SW
Sa, 13.07. 20:50 4 1 - 230° SW
Sa, 13.07. 20:40 4 1 - 240° SW
Sa, 13.07. 20:30 7 2 14 250° W
Sa, 13.07. 20:00 7 2 22 240° SW
Sa, 13.07. 19:30 7 2 22 230° SW
Sa, 13.07. 19:00 7 2 22 250° W
Sa, 13.07. 18:30 9 2 22 210° SW
Ortszeit Untergrenze Bedeckung Gattung
total tief tief mittel hoch
Sa, 13.07. 20:00 2100 m 5/8 5/8 - - -
Sa, 13.07. 14:00 2400 m 7/8 7/8 - - -
Sa, 13.07. 8:00 810 m 3/8 3/8 - - -
Sa, 13.07. 2:00 390 m 8/8 8/8 - - -
Fr, 12.07. 20:00 4500 m 8/8 8/8 - - -
Fr, 12.07. 14:00 1080 m 7/8 4/8 - - -
Fr, 12.07. 8:00 1410 m 7/8 5/8 - - -
Fr, 12.07. 2:00 8100 m 8/8 0/8 - - -
Ortszeit Bedeckungsgrad in Achtel und Wolkenuntergrenze
Sa, 13.07. 21:30 7(7200m) 8(7800m)
Sa, 13.07. 21:20 7(7200m) 8(7800m)
Sa, 13.07. 21:10 8
Sa, 13.07. 21:00 2(1500m) 3(6600m) 7(7200m)
Sa, 13.07. 20:50 2(1500m) 3(6600m) 7(7200m)
Sa, 13.07. 20:40 7
Sa, 13.07. 20:30 1(1800m) 5(6900m) 7(7800m)
Sa, 13.07. 20:00 1(2100m) 5(2700m)
Sa, 13.07. 19:30 2(1800m) 7(2400m)
Sa, 13.07. 19:00 4(1440m) 5(1800m) 5(2100m)
Sa, 13.07. 18:30 3(1470m)
Ortszeit Luftdruck NN (hPa) Tendenz (hPa in 3 Std.)
Sa, 13.07. 20:00 1013 + 0,1
Sa, 13.07. 14:00 1014 - 0,1
Sa, 13.07. 8:00 1014 + 0,2
Sa, 13.07. 2:00 1013 + 1,1
Fr, 12.07. 20:00 1008 - 0,3
Fr, 12.07. 14:00 1008 - 0,2
Fr, 12.07. 8:00 1010 - 1,9
Fr, 12.07. 2:00 1014 - 1,6
Ortszeit Luftdruck NN (hPa) Tendenz (hPa in 3 Std.)
Sa, 13.07. 21:30 1014 + 0,5
Sa, 13.07. 21:20 1014 keine Meldung
Sa, 13.07. 21:10 1014 keine Meldung
Sa, 13.07. 21:00 1013 + 0,3
Sa, 13.07. 20:50 1013 keine Meldung
Sa, 13.07. 20:40 1013 keine Meldung
Sa, 13.07. 20:30 1013 + 0,2
Sa, 13.07. 20:00 1013 + 0,1
Sa, 13.07. 19:30 1013 + 0,1
Sa, 13.07. 19:00 1013 - 0,2
Sa, 13.07. 18:30 1013 - 0,5
Ortszeit Schneehöhe (cm)
Sa, 13.07. 20:00 0
Sa, 13.07. 14:00 0
Sa, 13.07. 8:00 0
Sa, 13.07. 2:00 0
Fr, 12.07. 20:00 0
Fr, 12.07. 14:00 0
Fr, 12.07. 8:00 0
Fr, 12.07. 2:00 0
Ortszeit Schneehöhe (cm)
Sa, 13.07. 21:30 0
Sa, 13.07. 21:20 0
Sa, 13.07. 21:10 -
Sa, 13.07. 21:00 0
Sa, 13.07. 20:50 0
Sa, 13.07. 20:40 -
Sa, 13.07. 20:30 0
Sa, 13.07. 20:00 0
Sa, 13.07. 19:30 0
Sa, 13.07. 19:00 0
Sa, 13.07. 18:30 0
Link zu dieser Seite / Seite empfehlen

Das Wetter in ...